Time;durP1;ratioP1;P1;durP2;ratioP2;P2;SDS_P1;SDS_P2;PMS_P1;PMS_P2;Temp;Humidity;BMP_temperature;BMP_pressure;BME280_temperature;BME280_humidity;BME280_pressure;Samples;Min_cycle;Max_cycle;Signal;HPM_P1;HPM_P2
2021/05/29 00:04:49;;;;;;;6.32;3.80;;;20.40;70.90;;;;;;12003216;28;20044;-75
2021/05/29 00:10:38;;;;;;;7.78;3.97;;;20.30;71.50;;;;;;12004297;28;20048;-78
2021/05/29 00:16:25;;;;;;;11.15;3.80;;;20.30;71.90;;;;;;12008909;28;20577;-78
2021/05/29 00:22:11;;;;;;;4.43;3.25;;;20.20;71.70;;;;;;12010438;28;20048;-78
2021/05/29 00:27:59;;;;;;;6.93;3.75;;;20.20;72.30;;;;;;12011831;28;20434;-79
2021/05/29 00:33:45;;;;;;;11.25;4.30;;;20.10;72.40;;;;;;12009883;28;20060;-78
2021/05/29 07:01:22;;;;;;;11.38;6.32;;;18.30;99.90;;;;;;12019118;28;20501;-74
2021/05/29 07:07:09;;;;;;;6.45;5.03;;;19.30;96.70;;;;;;11970470;28;20052;-75
2021/05/29 07:12:56;;;;;;;8.93;4.80;;;19.90;94.30;;;;;;12026391;28;20680;-75
2021/05/29 07:18:46;;;;;;;12.55;5.85;;;20.40;92.60;;;;;;11980959;28;20107;-75
2021/05/29 07:24:33;;;;;;;6.85;3.88;;;20.80;91.00;;;;;;11977202;28;20045;-75
2021/05/29 07:30:22;;;;;;;6.28;3.42;;;21.10;86.60;;;;;;11979615;28;20045;-75
2021/05/29 07:36:08;;;;;;;4.00;2.97;;;21.20;82.20;;;;;;11978560;28;20064;-75
2021/05/29 07:41:54;;;;;;;6.13;3.00;;;21.30;78.20;;;;;;11964190;28;20045;-75
2021/05/29 07:47:43;;;;;;;5.43;3.25;;;21.40;77.80;;;;;;11981594;28;20064;-74
2021/05/29 07:53:31;;;;;;;10.52;3.55;;;21.50;76.90;;;;;;11998176;28;20044;-76
2021/05/29 07:59:18;;;;;;;7.55;2.85;;;21.60;75.30;;;;;;12007962;28;20052;-75
2021/05/29 08:05:13;;;;;;;6.72;2.95;;;21.60;75.20;;;;;;11991022;28;20057;-75
2021/05/29 08:11:01;;;;;;;9.60;3.10;;;21.80;72.10;;;;;;11991918;28;20045;-75
2021/05/29 08:16:47;;;;;;;7.13;2.83;;;21.90;72.10;;;;;;11992314;28;20116;-75
2021/05/29 08:22:35;;;;;;;4.05;2.42;;;21.90;71.40;;;;;;11998669;28;20063;-76
2021/05/29 08:28:21;;;;;;;5.05;2.15;;;22.00;69.50;;;;;;11995352;28;20045;-77
2021/05/29 08:34:08;;;;;;;5.72;2.42;;;21.90;66.90;;;;;;11994936;28;20053;-76
2021/05/29 08:39:55;;;;;;;5.05;2.50;;;22.00;67.50;;;;;;11991559;28;20079;-77
2021/05/29 08:45:41;;;;;;;4.75;2.65;;;22.10;66.60;;;;;;11992979;28;20068;-74
2021/05/29 08:51:28;;;;;;;4.43;2.25;;;22.20;66.60;;;;;;11989475;28;20044;-76
2021/05/29 08:57:16;;;;;;;3.28;2.22;;;22.30;66.00;;;;;;11991447;28;20401;-76
2021/05/29 09:03:05;;;;;;;4.10;2.00;;;22.30;63.70;;;;;;11990624;28;20045;-75
2021/05/29 09:08:53;;;;;;;5.88;2.20;;;22.20;64.70;;;;;;11984139;28;20053;-75
2021/05/29 09:14:41;;;;;;;3.60;2.20;;;22.10;64.80;;;;;;11988419;28;20046;-75
2021/05/29 09:20:28;;;;;;;4.88;2.35;;;22.00;64.80;;;;;;11948536;28;20432;-76
2021/05/29 09:26:14;;;;;;;7.22;3.78;;;21.90;65.40;;;;;;11961718;28;20060;-76
2021/05/29 09:32:04;;;;;;;10.90;3.60;;;21.90;65.50;;;;;;11949394;28;20069;-76
2021/05/29 09:38:03;;;;;;;4.05;2.80;;;21.70;65.90;;;;;;11950345;28;20802;-76
2021/05/29 09:43:54;;;;;;;10.50;3.10;;;21.80;66.00;;;;;;11973152;28;20104;-76
2021/05/29 09:49:51;;;;;;;5.22;2.95;;;22.00;66.40;;;;;;11939488;28;20056;-76
2021/05/29 09:55:40;;;;;;;4.28;2.60;;;22.30;66.30;;;;;;11961100;28;20157;-76
2021/05/29 10:01:52;;;;;;;6.60;1.90;;;22.50;63.50;;;;;;11963615;28;20547;-76
2021/05/29 10:07:40;;;;;;;6.43;1.40;;;22.60;58.90;;;;;;11973112;28;20059;-76
2021/05/29 10:13:28;;;;;;;3.67;1.73;;;22.70;59.50;;;;;;11985565;28;20045;-79
2021/05/29 10:19:15;;;;;;;2.88;1.77;;;23.00;57.80;;;;;;11962477;28;20105;-80
2021/05/29 10:25:02;;;;;;;4.55;2.30;;;23.30;57.70;;;;;;11986598;28;20049;-79
2021/05/29 10:30:56;;;;;;;5.82;1.90;;;23.60;57.70;;;;;;11975160;28;20122;-85
2021/05/29 10:36:45;;;;;;;2.95;1.80;;;23.80;55.00;;;;;;11966900;28;20418;-78
2021/05/29 10:42:33;;;;;;;8.35;4.55;;;23.60;54.30;;;;;;11987429;28;20076;-80
2021/05/29 10:48:21;;;;;;;3.95;1.92;;;23.60;56.80;;;;;;11989082;28;20073;-78
2021/05/29 10:54:13;;;;;;;3.38;2.63;;;23.50;56.50;;;;;;11983208;28;20057;-79
2021/05/29 11:00:01;;;;;;;7.38;2.85;;;23.60;57.40;;;;;;11985614;28;20132;-80
2021/05/29 11:05:49;;;;;;;10.05;5.82;;;23.80;56.60;;;;;;11928597;28;20046;-79
2021/05/29 11:11:55;;;;;;;11.25;5.35;;;23.90;57.20;;;;;;11969690;28;20047;-81
2021/05/29 11:18:10;;;;;;;5.47;2.28;;;24.00;57.50;;;;;;11951966;28;20053;-82
2021/05/29 11:23:57;;;;;;;8.82;2.20;;;24.00;56.30;;;;;;11994526;28;20053;-82
2021/05/29 11:29:49;;;;;;;2.97;2.03;;;24.00;56.80;;;;;;11980085;28;20074;-83
2021/05/29 11:35:38;;;;;;;3.78;2.50;;;24.10;56.90;;;;;;11987171;28;20050;-79
2021/05/29 11:41:27;;;;;;;2.05;1.67;;;24.30;55.70;;;;;;11989141;28;20055;-81
2021/05/29 11:47:17;;;;;;;4.47;2.05;;;24.40;54.00;;;;;;11988273;28;20049;-80
2021/05/29 11:53:05;;;;;;;2.28;1.55;;;24.30;54.50;;;;;;11991469;28;20603;-78
2021/05/29 11:58:52;;;;;;;2.33;1.77;;;24.20;53.10;;;;;;11988525;28;20057;-74
2021/05/29 12:04:51;;;;;;;2.50;1.70;;;24.10;53.90;;;;;;11986615;28;20048;-77
2021/05/29 12:10:50;;;;;;;3.90;2.20;;;24.30;52.70;;;;;;12004407;28;20050;-78
2021/05/29 12:16:39;;;;;;;2.63;1.80;;;24.00;52.70;;;;;;11995960;28;20056;-78
2021/05/29 12:22:27;;;;;;;2.95;2.05;;;24.10;52.10;;;;;;11993870;28;20052;-77
2021/05/29 12:28:17;;;;;;;3.35;1.90;;;24.20;51.50;;;;;;11991510;28;20053;-78
2021/05/29 12:34:04;;;;;;;4.25;1.70;;;24.40;52.60;;;;;;11991211;28;20068;-77
2021/05/29 12:39:53;;;;;;;4.85;2.10;;;24.50;52.00;;;;;;11991296;28;20049;-78
2021/05/29 12:45:42;;;;;;;3.92;2.08;;;24.60;52.80;;;;;;11987391;28;20049;-77
2021/05/29 12:51:38;;;;;;;3.80;1.95;;;24.80;52.70;;;;;;11989367;28;20065;-76
2021/05/29 12:57:35;;;;;;;2.65;2.30;;;24.50;52.30;;;;;;11995811;28;20652;-78
2021/05/29 13:09:31;;;;;;;5.35;1.92;;;25.00;52.50;;;;;;11941299;28;20049;-76
2021/05/29 13:15:19;;;;;;;4.43;2.28;;;25.30;53.40;;;;;;11967677;28;20108;-76
2021/05/29 13:21:06;;;;;;;2.58;1.58;;;25.60;52.70;;;;;;11992819;28;20052;-76
2021/05/29 13:26:52;;;;;;;4.30;1.75;;;25.30;52.30;;;;;;11998082;28;20060;-76
2021/05/29 13:32:40;;;;;;;2.90;1.88;;;25.10;52.00;;;;;;12002189;28;20056;-77
2021/05/29 13:38:27;;;;;;;5.85;1.90;;;25.40;51.60;;;;;;12001983;28;20064;-76
2021/05/29 13:44:14;;;;;;;2.85;1.70;;;25.60;50.60;;;;;;11998103;28;20056;-77
2021/05/29 13:50:00;;;;;;;4.13;1.90;;;25.80;50.50;;;;;;11996471;28;20053;-78
2021/05/29 13:55:47;;;;;;;2.70;1.75;;;26.00;49.80;;;;;;11993673;28;20060;-76
2021/05/29 14:01:34;;;;;;;1.80;1.52;;;26.10;50.40;;;;;;11996196;28;20064;-77
2021/05/29 14:07:21;;;;;;;2.60;1.70;;;26.30;48.90;;;;;;11994836;28;20396;-78
2021/05/29 14:13:09;;;;;;;3.47;1.70;;;26.60;48.90;;;;;;11994446;28;20060;-77
2021/05/29 14:18:56;;;;;;;7.00;2.40;;;26.60;46.80;;;;;;11993268;28;20053;-77
2021/05/29 14:24:42;;;;;;;3.42;1.75;;;26.70;48.50;;;;;;11991164;28;20049;-82
2021/05/29 14:30:29;;;;;;;3.72;1.60;;;26.80;49.20;;;;;;11997497;28;20038;-81
2021/05/29 14:36:20;;;;;;;1.55;1.45;;;27.00;48.70;;;;;;12002022;28;20053;-81
2021/05/29 14:42:07;;;;;;;1.92;1.50;;;27.20;48.00;;;;;;11996931;28;20651;-82
2021/05/29 14:47:55;;;;;;;10.98;1.80;;;27.30;46.80;;;;;;11998961;28;20152;-82
2021/05/29 14:53:41;;;;;;;4.97;1.40;;;27.20;47.20;;;;;;11997410;28;20112;-83
2021/05/29 14:59:28;;;;;;;2.35;1.60;;;27.30;46.30;;;;;;11996019;28;20427;-81
2021/05/29 15:05:15;;;;;;;1.67;1.35;;;27.60;47.00;;;;;;11997250;28;20045;-81
2021/05/29 15:11:02;;;;;;;3.63;1.92;;;27.70;45.30;;;;;;11984558;28;20149;-85
2021/05/29 15:16:49;;;;;;;3.15;1.40;;;27.70;46.20;;;;;;11991289;28;20057;-83
2021/05/29 15:22:37;;;;;;;2.58;1.52;;;27.60;46.70;;;;;;11988683;28;20106;-82
2021/05/29 15:28:23;;;;;;;1.73;1.63;;;27.80;46.40;;;;;;11993278;28;20071;-82
2021/05/29 15:34:13;;;;;;;1.35;1.13;;;27.80;45.10;;;;;;12000621;28;20060;-83
2021/05/29 15:40:00;;;;;;;3.30;1.45;;;27.80;46.10;;;;;;12003173;28;20588;-82
2021/05/29 15:45:47;;;;;;;1.73;1.40;;;27.80;45.80;;;;;;11961938;28;20045;-81
2021/05/29 15:51:34;;;;;;;2.25;1.20;;;28.80;44.60;;;;;;11951041;28;20061;-77
2021/05/29 15:57:21;;;;;;;2.65;1.45;;;29.20;43.20;;;;;;11945532;28;20050;-77
2021/05/29 16:03:08;;;;;;;2.17;1.30;;;29.20;43.40;;;;;;11967708;28;20443;-77
2021/05/29 16:08:55;;;;;;;2.65;1.30;;;30.40;42.90;;;;;;11948739;28;20069;-77
2021/05/29 16:14:42;;;;;;;1.00;1.00;;;30.90;41.20;;;;;;11964449;28;20428;-77
2021/05/29 16:20:29;;;;;;;1.75;1.45;;;30.40;41.40;;;;;;11967692;28;20100;-77
2021/05/29 16:26:15;;;;;;;3.10;1.20;;;30.10;42.50;;;;;;11978017;28;20090;-76
2021/05/29 16:32:03;;;;;;;1.58;1.40;;;29.40;43.30;;;;;;11987414;28;20057;-76
2021/05/29 16:37:50;;;;;;;2.60;1.42;;;28.50;43.90;;;;;;11973378;28;20045;-76
2021/05/29 16:43:39;;;;;;;2.15;1.45;;;27.90;45.10;;;;;;11963877;28;20053;-76
2021/05/29 16:49:27;;;;;;;4.70;1.63;;;27.50;46.40;;;;;;11970527;28;20060;-77
2021/05/29 16:55:14;;;;;;;8.98;2.85;;;27.30;46.90;;;;;;11986851;28;20573;-77
2021/05/29 17:01:01;;;;;;;2.22;1.60;;;28.00;47.20;;;;;;11990649;28;20466;-76
2021/05/29 17:06:49;;;;;;;4.32;1.70;;;28.90;45.70;;;;;;11985912;28;20053;-76
2021/05/29 17:12:35;;;;;;;4.68;2.40;;;29.00;46.00;;;;;;11988775;28;20981;-77
2021/05/29 17:18:21;;;;;;;3.58;1.90;;;28.90;46.00;;;;;;11989373;28;20098;-77
2021/05/29 17:24:11;;;;;;;15.93;3.20;;;29.40;44.70;;;;;;11975250;28;20053;-78
2021/05/29 17:29:58;;;;;;;4.50;1.80;;;30.10;43.50;;;;;;11968696;28;20067;-77
2021/05/29 17:35:44;;;;;;;6.47;1.70;;;30.20;42.40;;;;;;11962337;28;20057;-77
2021/05/29 17:41:32;;;;;;;1.60;1.50;;;29.50;43.30;;;;;;11987444;28;20045;-76
2021/05/29 17:47:19;;;;;;;2.50;1.50;;;29.70;43.90;;;;;;11984205;28;20057;-77
2021/05/29 17:53:06;;;;;;;2.17;1.30;;;31.20;40.80;;;;;;11989419;28;20049;-76
2021/05/29 18:05:03;;;;;;;1.80;1.48;;;30.00;41.70;;;;;;11962407;28;20141;-76
2021/05/29 18:10:50;;;;;;;2.50;1.50;;;28.90;42.60;;;;;;11992448;28;20049;-84
2021/05/29 18:16:38;;;;;;;2.70;1.50;;;29.60;42.80;;;;;;11994788;28;20048;-82
2021/05/29 18:22:24;;;;;;;2.85;1.40;;;33.20;38.20;;;;;;11994088;28;20049;-83
2021/05/29 18:28:11;;;;;;;1.70;1.60;;;33.90;37.40;;;;;;11993181;28;20088;-84
2021/05/29 18:33:58;;;;;;;3.10;1.83;;;32.00;39.40;;;;;;11946431;28;20049;-83
2021/05/29 18:39:47;;;;;;;4.05;2.20;;;30.30;41.40;;;;;;11973620;28;21070;-82
2021/05/29 18:45:33;;;;;;;2.80;1.88;;;28.90;43.90;;;;;;11966286;28;20046;-82
2021/05/29 18:51:23;;;;;;;2.08;1.85;;;28.40;45.20;;;;;;12018782;28;20044;-83
2021/05/29 18:57:10;;;;;;;1.98;1.80;;;28.40;45.70;;;;;;12009344;28;20084;-82
2021/05/29 19:03:00;;;;;;;3.47;2.30;;;29.70;43.90;;;;;;11970673;28;20160;-81
2021/05/29 19:09:09;;;;;;;4.35;2.20;;;30.30;42.50;;;;;;11990315;28;20050;-84
2021/05/29 19:15:03;;;;;;;2.42;2.20;;;28.80;43.70;;;;;;11992794;28;20048;-82
2021/05/29 19:20:49;;;;;;;5.18;2.80;;;27.50;46.00;;;;;;11993712;28;20503;-85
2021/05/29 19:26:53;;;;;;;3.22;2.05;;;26.60;48.10;;;;;;11989119;28;20049;-84
2021/05/29 19:44:52;;;;;;;4.00;3.17;;;25.00;52.00;;;;;;11992090;28;20052;-82
2021/05/29 20:03:25;;;;;;;8.27;4.18;;;24.20;55.40;;;;;;12001201;28;20056;-83
2021/05/29 20:27:22;;;;;;;6.60;2.42;;;23.60;55.80;;;;;;11992393;28;20040;-83
2021/05/29 20:33:09;;;;;;;3.78;2.45;;;23.40;54.80;;;;;;11996108;28;20427;-84
2021/05/29 20:38:56;;;;;;;4.13;2.20;;;23.30;54.10;;;;;;12003675;28;20122;-85
2021/05/29 20:44:44;;;;;;;3.90;3.05;;;23.30;54.70;;;;;;11994991;28;20877;-84
2021/05/29 20:50:31;;;;;;;5.15;3.20;;;23.30;56.60;;;;;;12003661;28;20160;-84
2021/05/29 20:56:18;;;;;;;4.38;2.42;;;23.20;55.90;;;;;;12003764;28;20078;-84
2021/05/29 21:02:05;;;;;;;3.28;2.28;;;23.10;55.80;;;;;;12000651;28;20137;-85
2021/05/29 21:07:52;;;;;;;5.57;2.97;;;23.10;55.60;;;;;;11978947;28;20063;-84
2021/05/29 21:13:42;;;;;;;4.35;2.22;;;23.10;55.40;;;;;;11970060;28;20051;-83
2021/05/29 21:25:44;;;;;;;7.22;3.20;;;22.90;55.20;;;;;;11843378;28;20105;-84
2021/05/29 21:31:31;;;;;;;2.50;2.30;;;22.80;54.90;;;;;;11847657;28;20216;-84
2021/05/29 21:37:17;;;;;;;3.20;2.38;;;22.80;55.20;;;;;;11843200;28;20060;-76
2021/05/29 21:43:04;;;;;;;4.63;3.90;;;22.80;54.80;;;;;;11868574;28;20447;-76
2021/05/29 21:54:55;;;;;;;4.03;2.78;;;22.70;55.90;;;;;;11883236;28;20047;-77
2021/05/29 22:00:52;;;;;;;3.80;2.67;;;22.60;55.30;;;;;;11952839;28;20057;-77
2021/05/29 22:06:40;;;;;;;3.45;2.22;;;22.60;54.80;;;;;;11985852;28;20049;-75
2021/05/29 22:12:37;;;;;;;3.33;2.08;;;22.60;55.00;;;;;;11987708;28;20411;-77
2021/05/29 22:18:27;;;;;;;3.38;2.25;;;22.50;54.60;;;;;;11962826;28;20164;-77
2021/05/29 22:30:20;;;;;;;2.38;1.90;;;22.40;54.80;;;;;;11982457;28;20073;-76
2021/05/29 22:36:07;;;;;;;2.63;2.00;;;22.40;54.70;;;;;;11968426;28;20134;-78
2021/05/29 22:41:57;;;;;;;3.67;2.00;;;22.30;55.00;;;;;;11985108;28;20045;-76
2021/05/29 22:47:43;;;;;;;3.80;2.42;;;22.20;54.30;;;;;;11981518;28;20053;-76
2021/05/29 22:53:30;;;;;;;4.40;2.60;;;22.20;54.60;;;;;;11981830;28;20048;-76
2021/05/29 22:59:18;;;;;;;3.42;2.50;;;22.20;54.80;;;;;;11985306;28;20091;-77
2021/05/29 23:05:05;;;;;;;4.07;2.30;;;22.20;55.20;;;;;;11983982;28;20120;-77
2021/05/29 23:10:52;;;;;;;4.10;2.20;;;22.10;54.30;;;;;;11987027;28;20060;-77
2021/05/29 23:16:39;;;;;;;5.70;2.00;;;22.10;54.70;;;;;;11946643;28;20050;-76
2021/05/29 23:22:26;;;;;;;2.75;1.80;;;22.10;55.00;;;;;;11963516;28;20059;-76
2021/05/29 23:28:12;;;;;;;5.50;2.38;;;22.00;55.10;;;;;;11948446;28;20044;-76
2021/05/29 23:34:00;;;;;;;3.10;2.20;;;22.00;55.00;;;;;;11933887;28;20049;-76
2021/05/29 23:39:46;;;;;;;6.57;2.05;;;22.00;54.30;;;;;;11995278;28;20060;-77
2021/05/29 23:45:33;;;;;;;4.45;2.20;;;22.00;55.00;;;;;;11990421;28;20051;-76
2021/05/29 23:51:20;;;;;;;2.67;2.10;;;21.80;54.40;;;;;;11997390;28;20824;-76
2021/05/29 23:57:07;;;;;;;2.95;2.30;;;21.90;55.10;;;;;;12000590;28;20050;-77
